sensor_id;sensor_type;location;lat;lon;timestamp;temperature;humidity
14769;DHT22;7476;49.404;11.152;2022-12-29T09:11:47;10.10;99.90
14769;DHT22;7476;49.404;11.152;2022-12-29T09:14:14;10.20;99.90
14769;DHT22;7476;49.404;11.152;2022-12-29T09:16:41;10.40;99.90
14769;DHT22;7476;49.404;11.152;2022-12-29T09:19:25;10.50;99.90
14769;DHT22;7476;49.404;11.152;2022-12-29T09:21:51;10.60;99.90
14769;DHT22;7476;49.404;11.152;2022-12-29T09:24:18;10.80;99.90
14769;DHT22;7476;49.404;11.152;2022-12-29T09:26:46;10.90;99.90
14769;DHT22;7476;49.404;11.152;2022-12-29T09:29:13;11.00;99.90
14769;DHT22;7476;49.404;11.152;2022-12-29T09:31:39;11.00;99.90
14769;DHT22;7476;49.404;11.152;2022-12-29T09:34:06;10.90;99.90
14769;DHT22;7476;49.404;11.152;2022-12-29T09:36:32;11.00;99.90
14769;DHT22;7476;49.404;11.152;2022-12-29T09:38:59;11.20;99.90
14769;DHT22;7476;49.404;11.152;2022-12-29T09:41:31;11.30;99.90
14769;DHT22;7476;49.404;11.152;2022-12-29T09:44:08;11.40;99.90
14769;DHT22;7476;49.404;11.152;2022-12-29T09:46:41;11.30;99.90
14769;DHT22;7476;49.404;11.152;2022-12-29T09:49:18;11.30;99.90
14769;DHT22;7476;49.404;11.152;2022-12-29T09:51:49;11.20;99.90
14769;DHT22;7476;49.404;11.152;2022-12-29T09:54:29;11.20;99.90
14769;DHT22;7476;49.404;11.152;2022-12-29T09:56:59;11.20;99.90
14769;DHT22;7476;49.404;11.152;2022-12-29T09:59:38;11.20;99.90
14769;DHT22;7476;49.404;11.152;2022-12-29T10:02:16;11.20;99.90
14769;DHT22;7476;49.404;11.152;2022-12-29T10:04:46;11.30;99.90
14769;DHT22;7476;49.404;11.152;2022-12-29T10:07:21;11.30;99.90
14769;DHT22;7476;49.404;11.152;2022-12-29T10:09:56;11.30;99.90
14769;DHT22;7476;49.404;11.152;2022-12-29T10:12:32;11.40;99.90
14769;DHT22;7476;49.404;11.152;2022-12-29T10:15:04;11.40;99.90
14769;DHT22;7476;49.404;11.152;2022-12-29T10:17:41;11.40;99.90
14769;DHT22;7476;49.404;11.152;2022-12-29T10:20:19;11.40;99.90
14769;DHT22;7476;49.404;11.152;2022-12-29T11:55:50;12.40;99.90
14769;DHT22;7476;49.404;11.152;2022-12-29T11:58:18;12.70;99.90
14769;DHT22;7476;49.404;11.152;2022-12-29T12:00:46;13.10;99.90
14769;DHT22;7476;49.404;11.152;2022-12-29T12:03:18;13.30;99.90
14769;DHT22;7476;49.404;11.152;2022-12-29T12:05:48;13.40;99.90
14769;DHT22;7476;49.404;11.152;2022-12-29T12:08:21;13.50;99.90
14769;DHT22;7476;49.404;11.152;2022-12-29T12:10:58;13.60;99.90
14769;DHT22;7476;49.404;11.152;2022-12-29T12:13:31;13.50;99.90
14769;DHT22;7476;49.404;11.152;2022-12-29T12:16:06;13.40;99.90
14769;DHT22;7476;49.404;11.152;2022-12-29T12:18:39;13.50;99.90
14769;DHT22;7476;49.404;11.152;2022-12-29T12:21:13;13.50;99.90
14769;DHT22;7476;49.404;11.152;2022-12-29T12:23:52;13.40;99.90
14769;DHT22;7476;49.404;11.152;2022-12-29T12:26:30;13.60;99.90
14769;DHT22;7476;49.404;11.152;2022-12-29T12:29:03;13.80;99.90
14769;DHT22;7476;49.404;11.152;2022-12-29T12:31:43;13.80;99.90
14769;DHT22;7476;49.404;11.152;2022-12-29T12:34:15;13.50;99.90
14769;DHT22;7476;49.404;11.152;2022-12-29T12:36:54;13.40;99.90
14769;DHT22;7476;49.404;11.152;2022-12-29T12:39:26;13.40;99.90
14769;DHT22;7476;49.404;11.152;2022-12-29T12:42:06;13.50;99.90
14769;DHT22;7476;49.404;11.152;2022-12-29T12:44:45;13.50;99.90
14769;DHT22;7476;49.404;11.152;2022-12-29T12:47:34;13.40;99.90
14769;DHT22;7476;49.404;11.152;2022-12-29T12:50:18;13.40;99.90
14769;DHT22;7476;49.404;11.152;2022-12-29T12:53:13;13.50;99.90
14769;DHT22;7476;49.404;11.152;2022-12-29T12:55:53;13.40;99.90
14769;DHT22;7476;49.404;11.152;2022-12-29T12:58:29;13.20;99.90
14769;DHT22;7476;49.404;11.152;2022-12-29T13:01:11;13.10;99.90
